createdAt,value
2022-10-21T00:00:00.282Z,10.85
2022-10-21T00:02:27.890Z,11.38
2022-10-21T00:04:55.553Z,10.93
2022-10-21T00:07:23.381Z,11.85
2022-10-21T00:09:52.368Z,9.68
2022-10-21T00:12:19.953Z,9.88
2022-10-21T00:14:47.586Z,10.60
2022-10-21T00:17:15.231Z,11.13
2022-10-21T00:19:42.886Z,11.35
2022-10-21T00:22:10.529Z,10.63
2022-10-21T00:24:38.148Z,10.93
2022-10-21T00:27:07.219Z,11.43
2022-10-21T00:29:34.874Z,10.98
2022-10-21T00:32:02.544Z,9.50
2022-10-21T00:34:31.046Z,10.93
2022-10-21T00:36:58.889Z,9.77
2022-10-21T00:41:54.201Z,10.82
2022-10-21T00:44:23.247Z,11.55
2022-10-21T00:46:54.840Z,9.52
2022-10-21T00:49:30.959Z,10.65
2022-10-21T00:52:03.243Z,10.35
2022-10-21T00:54:32.459Z,10.93
2022-10-21T00:57:00.726Z,9.77
2022-10-21T00:59:34.938Z,11.20
2022-10-21T01:02:02.770Z,9.98
2022-10-21T01:04:30.468Z,8.77
2022-10-21T01:06:58.426Z,8.57
2022-10-21T01:11:54.775Z,9.00
2022-10-21T01:14:42.997Z,8.00
2022-10-21T01:17:40.278Z,9.02
2022-10-21T01:20:41.184Z,8.50
2022-10-21T01:23:50.385Z,8.50
2022-10-21T01:26:57.252Z,8.10
2022-10-21T01:29:47.470Z,9.60
2022-10-21T01:32:25.870Z,10.38
2022-10-21T01:34:58.247Z,9.00
2022-10-21T01:37:32.977Z,9.15
2022-10-21T01:40:10.265Z,9.95
2022-10-21T01:42:43.597Z,10.75
2022-10-21T01:45:16.548Z,10.73
2022-10-21T01:47:50.782Z,11.45
2022-10-21T01:50:22.590Z,10.15
2022-10-21T01:52:55.664Z,10.25
2022-10-21T01:55:27.389Z,10.98
2022-10-21T01:58:00.896Z,10.40
2022-10-21T02:00:29.355Z,9.90
2022-10-21T02:02:58.833Z,10.90
2022-10-21T02:05:30.223Z,10.10
2022-10-21T02:07:58.090Z,10.35
2022-10-21T02:12:58.258Z,8.38
2022-10-21T02:15:26.989Z,9.88
2022-10-21T02:17:58.796Z,10.38
2022-10-21T02:20:31.299Z,10.18
2022-10-21T02:22:59.529Z,10.52
2022-10-21T02:25:30.753Z,9.95
2022-10-21T02:27:58.588Z,10.45
2022-10-21T02:32:58.286Z,9.15
2022-10-21T02:35:36.537Z,10.30
2022-10-21T02:38:11.469Z,9.32
2022-10-21T02:40:43.625Z,10.57
2022-10-21T02:43:15.193Z,9.70
2022-10-21T02:45:43.194Z,9.77
2022-10-21T02:48:10.813Z,10.23
2022-10-21T02:50:39.791Z,9.70
2022-10-21T02:53:08.448Z,9.32
2022-10-21T02:55:36.094Z,8.77
2022-10-21T02:58:03.724Z,8.25
2022-10-21T03:00:32.920Z,9.80
2022-10-21T03:03:00.973Z,10.13
2022-10-21T03:05:28.688Z,9.15
2022-10-21T03:07:57.758Z,9.55
2022-10-21T03:10:25.415Z,8.50
2022-10-21T03:12:53.036Z,9.35
2022-10-21T03:15:20.759Z,8.80
2022-10-21T03:17:48.649Z,9.45
2022-10-21T03:22:44.694Z,9.18
2022-10-21T03:25:14.326Z,9.98
2022-10-21T03:27:41.936Z,9.57
2022-10-21T03:30:10.726Z,10.73
2022-10-21T03:32:38.685Z,10.95
2022-10-21T03:35:07.452Z,9.80
2022-10-21T03:37:35.075Z,9.85
2022-10-21T03:40:04.077Z,10.15
2022-10-21T03:42:34.431Z,9.43
2022-10-21T03:45:02.033Z,10.00
2022-10-21T03:47:29.649Z,9.90
2022-10-21T03:49:57.294Z,10.40
2022-10-21T03:52:24.973Z,10.70
2022-10-21T03:54:52.591Z,10.02
2022-10-21T03:57:20.210Z,10.40
2022-10-21T03:59:49.217Z,10.43
2022-10-21T04:02:16.863Z,9.52
2022-10-21T04:04:44.486Z,9.25
2022-10-21T04:07:12.105Z,11.75
2022-10-21T04:09:39.733Z,10.85
2022-10-21T04:12:07.361Z,9.23
2022-10-21T04:14:34.994Z,9.13
2022-10-21T04:17:07.490Z,8.73
2022-10-21T04:19:35.740Z,9.57
2022-10-21T04:22:03.382Z,8.82
2022-10-21T04:24:31.004Z,9.10
2022-10-21T04:26:58.652Z,9.50
2022-10-21T04:29:26.393Z,9.93
2022-10-21T04:34:27.991Z,9.00
2022-10-21T04:36:55.605Z,9.20
2022-10-21T04:39:23.310Z,9.68
2022-10-21T04:41:52.901Z,8.85
2022-10-21T04:44:20.498Z,8.90
2022-10-21T04:46:48.238Z,9.35
2022-10-21T04:49:15.841Z,8.35
2022-10-21T04:51:44.910Z,8.50
2022-10-21T04:54:13.434Z,8.38
2022-10-21T04:56:41.312Z,7.40
2022-10-21T04:59:09.049Z,7.57
2022-10-21T05:01:36.804Z,7.93
2022-10-21T05:04:04.738Z,8.20
2022-10-21T05:09:01.239Z,7.38
2022-10-21T05:11:30.430Z,7.50
2022-10-21T05:13:58.070Z,8.40
2022-10-21T05:16:25.656Z,7.55
2022-10-21T05:18:53.286Z,7.70
2022-10-21T05:21:20.968Z,7.68
2022-10-21T05:23:48.585Z,8.05
2022-10-21T05:26:17.577Z,8.43
2022-10-21T05:28:45.220Z,9.02
2022-10-21T05:31:12.850Z,7.97
2022-10-21T05:33:40.462Z,7.97
2022-10-21T05:36:08.906Z,8.07
2022-10-21T05:38:36.564Z,7.68
2022-10-21T05:41:04.593Z,8.25
2022-10-21T05:46:01.051Z,7.38
2022-10-21T05:48:28.661Z,6.72
2022-10-21T05:50:56.704Z,6.32
2022-10-21T05:55:56.998Z,5.88
2022-10-21T05:58:25.017Z,7.07
2022-10-21T06:03:23.428Z,5.45
2022-10-21T06:05:51.324Z,5.93
2022-10-21T06:08:19.228Z,6.00
2022-10-21T06:10:46.822Z,6.28
2022-10-21T06:13:14.473Z,6.78
2022-10-21T06:15:42.195Z,6.07
2022-10-21T06:18:11.174Z,5.97
2022-10-21T06:20:38.785Z,6.30
2022-10-21T06:23:06.421Z,5.97
2022-10-21T06:25:34.018Z,5.95
2022-10-21T06:28:01.652Z,6.47
2022-10-21T06:30:29.322Z,10.93
2022-10-21T06:32:56.954Z,14.07
2022-10-21T06:35:26.129Z,6.40
2022-10-21T06:37:53.821Z,6.50
2022-10-21T06:40:21.457Z,6.20
2022-10-21T06:42:53.569Z,5.88
2022-10-21T06:45:21.250Z,6.47
2022-10-21T06:47:48.913Z,6.43
2022-10-21T06:50:16.605Z,5.60
2022-10-21T06:52:48.645Z,6.43
2022-10-21T06:55:16.739Z,5.60
2022-10-21T06:57:44.458Z,5.72
2022-10-21T07:00:13.576Z,6.65
2022-10-21T07:02:42.270Z,5.93
2022-10-21T07:05:10.146Z,6.63
2022-10-21T07:07:38.144Z,6.32
2022-10-21T07:10:08.058Z,6.93
2022-10-21T07:12:36.638Z,6.50
2022-10-21T07:15:04.566Z,6.60
2022-10-21T07:17:32.169Z,5.95
2022-10-21T07:20:00.543Z,6.10
2022-10-21T07:22:28.173Z,6.93
2022-10-21T07:24:55.836Z,5.80
2022-10-21T07:27:24.929Z,7.10
2022-10-21T07:29:52.534Z,7.13
2022-10-21T07:32:20.182Z,6.70
2022-10-21T07:34:47.810Z,6.88
2022-10-21T07:37:15.431Z,7.13
2022-10-21T07:39:43.094Z,7.45
2022-10-21T07:42:10.891Z,7.18
2022-10-21T07:44:40.091Z,7.40
2022-10-21T07:47:07.852Z,7.82
2022-10-21T07:49:35.497Z,7.35
2022-10-21T07:52:03.230Z,8.00
2022-10-21T07:54:30.886Z,8.68
2022-10-21T07:56:58.613Z,8.55
2022-10-21T07:59:26.275Z,8.40
2022-10-21T08:01:55.280Z,7.90
2022-10-21T08:04:29.631Z,8.85
2022-10-21T08:06:57.899Z,8.45
2022-10-21T08:09:26.477Z,7.35
2022-10-21T08:11:54.118Z,7.82
2022-10-21T08:14:21.787Z,8.55
2022-10-21T08:16:52.621Z,7.32
2022-10-21T08:19:27.257Z,7.43
2022-10-21T08:21:54.896Z,6.97
2022-10-21T08:24:23.511Z,7.93
2022-10-21T08:26:51.534Z,6.93
2022-10-21T08:31:46.803Z,6.90
2022-10-21T08:34:14.514Z,7.00
2022-10-21T08:36:43.569Z,6.60
2022-10-21T08:39:11.281Z,7.18
2022-10-21T08:41:52.338Z,6.75
2022-10-21T08:44:31.231Z,6.43
2022-10-21T08:47:03.632Z,7.05
2022-10-21T08:49:42.653Z,6.60
2022-10-21T08:52:17.368Z,5.70
2022-10-21T08:57:15.864Z,6.18
2022-10-21T08:59:43.973Z,5.45
2022-10-21T09:02:29.360Z,6.53
2022-10-21T09:05:10.571Z,6.47
2022-10-21T09:07:49.147Z,5.90
2022-10-21T09:10:26.609Z,5.70
2022-10-21T09:13:05.016Z,7.13
2022-10-21T09:15:39.651Z,7.45
2022-10-21T09:18:22.169Z,6.65
2022-10-21T09:21:04.785Z,6.75
2022-10-21T09:23:43.625Z,6.82
2022-10-21T09:26:26.602Z,7.18
2022-10-21T09:28:57.738Z,6.75
2022-10-21T09:31:25.469Z,6.70
2022-10-21T09:33:57.970Z,7.25
2022-10-21T09:36:30.836Z,6.85
2022-10-21T09:39:06.535Z,6.32
2022-10-21T09:41:42.343Z,7.40
2022-10-21T09:44:16.085Z,6.80
2022-10-21T09:46:46.062Z,7.25
2022-10-21T09:49:47.925Z,6.63
2022-10-21T09:52:12.552Z,7.40
2022-10-21T09:54:43.962Z,7.68
2022-10-21T09:57:15.308Z,6.82
2022-10-21T09:59:54.056Z,7.25
2022-10-21T10:02:29.305Z,6.63
2022-10-21T10:04:57.102Z,6.82
2022-10-21T10:07:32.309Z,6.20
2022-10-21T10:10:01.882Z,6.45
2022-10-21T10:12:30.603Z,5.95
2022-10-21T10:14:58.487Z,6.53
2022-10-21T10:20:20.618Z,5.55
2022-10-21T10:23:08.852Z,5.13
2022-10-21T10:25:40.065Z,5.85
2022-10-21T10:28:20.283Z,5.60
2022-10-21T10:30:51.452Z,5.88
2022-10-21T10:33:22.856Z,6.25
2022-10-21T10:35:52.617Z,5.78
2022-10-21T10:38:23.821Z,6.07
2022-10-21T10:40:56.374Z,5.22
2022-10-21T10:43:30.026Z,6.05
2022-10-21T10:46:01.428Z,5.72
2022-10-21T10:48:37.078Z,5.40
2022-10-21T10:51:07.791Z,5.00
2022-10-21T10:53:36.378Z,4.53
2022-10-21T10:56:29.580Z,5.13
2022-10-21T10:59:03.963Z,5.05
2022-10-21T11:01:38.275Z,5.10
2022-10-21T11:04:15.988Z,4.80
2022-10-21T11:06:49.477Z,4.90
2022-10-21T11:09:18.487Z,5.22
2022-10-21T11:11:49.497Z,4.35
2022-10-21T11:14:21.941Z,4.35
2022-10-21T11:17:08.661Z,4.22
2022-10-21T11:19:45.406Z,4.20
2022-10-21T11:22:20.992Z,4.18
2022-10-21T11:25:04.578Z,4.38
2022-10-21T11:27:48.378Z,4.20
2022-10-21T11:30:19.822Z,3.83
2022-10-21T11:33:15.485Z,4.18
2022-10-21T11:35:55.427Z,3.72
2022-10-21T11:38:37.897Z,3.78
2022-10-21T11:41:21.864Z,3.55
2022-10-21T11:44:03.274Z,3.30
2022-10-21T11:46:41.272Z,3.65
2022-10-21T11:49:28.165Z,3.25
2022-10-21T11:52:03.158Z,3.20
2022-10-21T11:55:08.612Z,3.03
2022-10-21T11:57:42.226Z,2.80
2022-10-21T12:00:16.999Z,2.60
2022-10-21T12:02:46.261Z,2.33
2022-10-21T12:05:24.650Z,2.53
2022-10-21T12:08:08.724Z,2.40
2022-10-21T12:10:41.286Z,2.67
2022-10-21T12:13:14.750Z,2.35
2022-10-21T12:15:49.471Z,1.83
2022-10-21T12:18:20.241Z,2.30
2022-10-21T12:20:51.067Z,2.20
2022-10-21T12:23:21.596Z,2.30
2022-10-21T12:25:58.378Z,2.80
2022-10-21T12:28:33.451Z,2.13
2022-10-21T12:31:18.250Z,2.55
2022-10-21T12:33:49.202Z,2.80
2022-10-21T12:36:39.097Z,2.90
2022-10-21T12:39:07.715Z,2.70
2022-10-21T12:41:37.507Z,2.60
2022-10-21T12:44:14.182Z,3.40
2022-10-21T12:46:45.235Z,3.42
2022-10-21T12:49:22.287Z,3.28
2022-10-21T12:51:52.594Z,2.63
2022-10-21T12:54:26.609Z,3.13
2022-10-21T12:57:03.479Z,3.60
2022-10-21T12:59:34.870Z,3.08
2022-10-21T13:02:30.179Z,3.53
2022-10-21T13:04:59.317Z,3.25
2022-10-21T13:07:32.707Z,2.70
2022-10-21T13:10:25.630Z,2.60
2022-10-21T13:13:28.599Z,2.30
2022-10-21T13:15:56.844Z,2.53
2022-10-21T13:18:53.741Z,2.42
2022-10-21T13:21:34.851Z,2.67
2022-10-21T13:24:13.372Z,2.50
2022-10-21T13:26:42.531Z,2.70
2022-10-21T13:29:35.831Z,2.30
2022-10-21T13:32:29.219Z,2.60
2022-10-21T13:35:32.750Z,2.60
2022-10-21T13:38:18.266Z,2.70
2022-10-21T13:40:48.920Z,2.20
2022-10-21T13:43:19.778Z,2.35
2022-10-21T13:45:50.014Z,2.40
2022-10-21T13:48:19.382Z,2.65
2022-10-21T13:50:48.888Z,2.15
2022-10-21T13:53:28.423Z,2.50
2022-10-21T13:55:59.005Z,2.30
2022-10-21T13:58:28.261Z,2.47
2022-10-21T14:00:58.693Z,2.25
2022-10-21T14:03:27.997Z,2.42
2022-10-21T14:05:59.050Z,2.65
2022-10-21T14:08:31.935Z,2.22
2022-10-21T14:11:03.002Z,2.10
2022-10-21T14:13:36.502Z,2.17
2022-10-21T14:16:05.300Z,2.50
2022-10-21T14:18:37.181Z,1.90
2022-10-21T14:21:07.192Z,1.92
2022-10-21T14:23:36.329Z,2.10
2022-10-21T14:26:07.439Z,1.83
2022-10-21T14:28:35.765Z,2.17
2022-10-21T14:33:39.364Z,1.90
2022-10-21T14:36:18.731Z,2.22
2022-10-21T14:38:53.973Z,2.03
2022-10-21T14:41:26.067Z,2.15
2022-10-21T14:43:55.754Z,1.92
2022-10-21T14:46:23.481Z,2.10
2022-10-21T14:48:54.727Z,2.20
2022-10-21T14:51:23.671Z,1.98
2022-10-21T14:53:56.085Z,2.00
2022-10-21T14:56:29.593Z,1.80
2022-10-21T14:58:59.926Z,1.90
2022-10-21T15:01:27.931Z,2.05
2022-10-21T15:03:57.892Z,1.95
2022-10-21T15:06:27.798Z,2.03
2022-10-21T15:09:23.191Z,2.13
2022-10-21T15:11:50.893Z,1.88
2022-10-21T15:14:21.825Z,2.20
2022-10-21T15:16:52.672Z,2.20
2022-10-21T15:19:23.926Z,1.90
2022-10-21T15:21:55.076Z,2.08
2022-10-21T15:24:31.362Z,2.10
2022-10-21T15:27:00.944Z,2.10
2022-10-21T15:29:33.955Z,2.05
2022-10-21T15:32:02.373Z,1.77
2022-10-21T15:34:30.584Z,1.63
2022-10-21T15:36:58.346Z,1.55
2022-10-21T15:39:27.353Z,1.90
2022-10-21T15:41:57.221Z,1.67
2022-10-21T15:44:27.714Z,1.58
2022-10-21T15:47:00.614Z,1.73
2022-10-21T15:49:31.736Z,1.95
2022-10-21T15:51:59.414Z,1.60
2022-10-21T15:54:28.526Z,1.52
2022-10-21T15:56:56.565Z,1.65
2022-10-21T15:59:26.434Z,1.58
2022-10-21T16:01:55.343Z,1.40
2022-10-21T16:04:23.910Z,1.50
2022-10-21T16:06:52.697Z,1.60
2022-10-21T16:09:22.653Z,1.63
2022-10-21T16:11:59.483Z,1.50
2022-10-21T16:14:30.028Z,1.92
2022-10-21T16:16:59.018Z,1.65
2022-10-21T16:19:26.685Z,1.40
2022-10-21T16:21:54.503Z,1.73
2022-10-21T16:26:51.170Z,1.98
2022-10-21T16:29:21.284Z,1.42
2022-10-21T16:31:49.123Z,1.70
2022-10-21T16:34:17.154Z,1.58
2022-10-21T16:36:44.955Z,1.70
2022-10-21T16:39:16.169Z,2.10
2022-10-21T16:41:43.827Z,1.63
2022-10-21T16:44:12.847Z,2.08
2022-10-21T16:46:42.732Z,2.00
2022-10-21T16:49:17.708Z,1.80
2022-10-21T16:51:46.681Z,1.67
2022-10-21T16:54:15.055Z,2.00
2022-10-21T16:56:42.800Z,2.13
2022-10-21T16:59:11.821Z,1.60
2022-10-21T17:01:40.065Z,2.10
2022-10-21T17:04:07.898Z,2.15
2022-10-21T17:06:35.500Z,2.22
2022-10-21T17:11:33.910Z,2.17
2022-10-21T17:14:02.405Z,2.10
2022-10-21T17:16:31.397Z,2.15
2022-10-21T17:18:59.252Z,2.30
2022-10-21T17:21:29.252Z,2.08
2022-10-21T17:24:00.595Z,2.08
2022-10-21T17:26:30.114Z,2.40
2022-10-21T17:28:57.954Z,1.85
2022-10-21T17:31:27.530Z,1.92
2022-10-21T17:33:58.489Z,2.08
2022-10-21T17:36:26.386Z,2.35
2022-10-21T17:38:54.020Z,2.53
2022-10-21T17:43:49.274Z,3.22
2022-10-21T17:46:19.870Z,2.50
2022-10-21T17:48:50.536Z,2.60
2022-10-21T17:51:20.055Z,2.72
2022-10-21T17:53:49.786Z,2.63
2022-10-21T17:56:18.307Z,2.58
2022-10-21T17:58:46.006Z,2.83
2022-10-21T18:03:42.063Z,2.53
2022-10-21T18:06:12.205Z,2.97
2022-10-21T18:08:41.299Z,3.10
2022-10-21T18:11:10.741Z,2.92
2022-10-21T18:13:38.641Z,2.50
2022-10-21T18:16:08.414Z,2.75
2022-10-21T18:18:37.258Z,3.03
2022-10-21T18:21:06.785Z,3.13
2022-10-21T18:23:34.475Z,2.83
2022-10-21T18:28:33.868Z,2.70
2022-10-21T18:31:01.576Z,3.20
2022-10-21T18:35:57.210Z,2.80
2022-10-21T18:38:24.893Z,2.75
2022-10-21T18:41:01.951Z,3.50
2022-10-21T18:43:38.643Z,2.75
2022-10-21T18:46:06.451Z,2.88
2022-10-21T18:48:34.147Z,2.80
2022-10-21T18:51:06.446Z,3.20
2022-10-21T18:53:35.697Z,2.65
2022-10-21T18:56:06.866Z,2.75
2022-10-21T18:58:35.371Z,2.50
2022-10-21T19:01:05.288Z,3.20
2022-10-21T19:03:33.559Z,3.08
2022-10-21T19:06:15.930Z,2.80
2022-10-21T19:08:43.992Z,2.67
2022-10-21T19:11:11.705Z,2.80
2022-10-21T19:13:39.325Z,2.83
2022-10-21T19:16:08.940Z,3.28
2022-10-21T19:18:37.856Z,3.15
2022-10-21T19:21:06.123Z,3.03
2022-10-21T19:23:34.166Z,2.80
2022-10-21T19:26:03.282Z,3.13
2022-10-21T19:28:31.156Z,2.83
2022-10-21T19:30:58.875Z,3.13
2022-10-21T19:35:55.376Z,3.20
2022-10-21T19:38:39.718Z,3.42
2022-10-21T19:41:11.921Z,3.33
2022-10-21T19:43:40.875Z,3.42
2022-10-21T19:46:09.970Z,3.80
2022-10-21T19:48:39.210Z,3.80
2022-10-21T19:51:08.012Z,3.63
2022-10-21T19:53:37.306Z,3.78
2022-10-21T19:56:06.585Z,4.05
2022-10-21T19:58:34.822Z,4.03
2022-10-21T20:01:03.268Z,3.95
2022-10-21T20:03:31.354Z,3.65
2022-10-21T20:06:00.369Z,4.60
2022-10-21T20:08:28.016Z,4.18
2022-10-21T20:11:00.181Z,4.05
2022-10-21T20:13:28.208Z,4.13
2022-10-21T20:15:56.100Z,3.88
2022-10-21T20:18:26.463Z,3.83
2022-10-21T20:20:55.450Z,4.00
2022-10-21T20:23:25.358Z,4.22
2022-10-21T20:25:55.145Z,4.10
2022-10-21T20:28:23.452Z,3.92
2022-10-21T20:30:57.095Z,3.90
2022-10-21T20:33:24.805Z,4.05
2022-10-21T20:38:20.328Z,3.60
2022-10-21T20:40:54.741Z,3.85
2022-10-21T20:43:22.390Z,4.13
2022-10-21T20:45:50.022Z,3.90
2022-10-21T20:48:17.661Z,3.75
2022-10-21T20:50:45.313Z,4.05
2022-10-21T20:53:12.969Z,4.20
2022-10-21T20:55:42.770Z,4.40
2022-10-21T20:58:11.758Z,4.07
2022-10-21T21:00:42.338Z,3.95
2022-10-21T21:03:11.213Z,4.05
2022-10-21T21:05:39.047Z,3.67
2022-10-21T21:08:07.221Z,3.55
2022-10-21T21:10:34.969Z,4.32
2022-10-21T21:15:31.612Z,4.28
2022-10-21T21:18:02.137Z,3.38
2022-10-21T21:20:29.920Z,3.25
2022-10-21T21:25:25.625Z,2.83
2022-10-21T21:30:20.880Z,3.10
2022-10-21T21:32:49.883Z,3.08
2022-10-21T21:35:17.506Z,3.60
2022-10-21T21:37:45.156Z,3.47
2022-10-21T21:40:12.942Z,3.50
2022-10-21T21:45:09.656Z,3.60
2022-10-21T21:47:37.328Z,3.15
2022-10-21T21:50:07.151Z,3.15
2022-10-21T21:52:34.782Z,2.90
2022-10-21T21:55:02.461Z,3.20
2022-10-21T21:57:30.248Z,3.38
2022-10-21T22:02:25.723Z,2.97
2022-10-21T22:04:53.620Z,3.08
2022-10-21T22:07:22.767Z,2.92
2022-10-21T22:09:50.607Z,2.78
2022-10-21T22:14:50.863Z,3.42
2022-10-21T22:19:46.024Z,2.97
2022-10-21T22:22:15.065Z,3.13
2022-10-21T22:24:45.300Z,3.50
2022-10-21T22:27:13.023Z,3.33
2022-10-21T22:29:40.699Z,3.28
2022-10-21T22:32:08.484Z,3.40
2022-10-21T22:37:03.760Z,3.50
2022-10-21T22:39:31.549Z,3.20
2022-10-21T22:44:28.036Z,3.15
2022-10-21T22:46:55.779Z,3.08
2022-10-21T22:49:23.534Z,3.30
2022-10-21T22:54:46.473Z,3.10
2022-10-21T22:57:13.105Z,3.08
2022-10-21T22:59:40.879Z,3.08
2022-10-21T23:02:08.596Z,3.42
2022-10-21T23:04:36.334Z,3.20
2022-10-21T23:07:04.043Z,3.60
2022-10-21T23:09:33.216Z,3.95
2022-10-21T23:12:00.925Z,2.97
2022-10-21T23:14:29.979Z,3.10
2022-10-21T23:16:57.621Z,3.60
2022-10-21T23:19:25.566Z,3.20
2022-10-21T23:21:53.197Z,3.55
2022-10-21T23:24:21.021Z,3.40
2022-10-21T23:29:16.264Z,3.03
2022-10-21T23:31:45.323Z,3.80
2022-10-21T23:34:12.988Z,3.90
2022-10-21T23:36:40.665Z,3.60
2022-10-21T23:39:08.397Z,3.65
2022-10-21T23:41:36.184Z,4.22
2022-10-21T23:46:31.371Z,3.15
2022-10-21T23:49:00.366Z,3.20
2022-10-21T23:51:28.103Z,3.58
2022-10-21T23:53:55.811Z,4.10
2022-10-21T23:56:23.647Z,3.15
